メインページ
METAR-TAF:

METAR-TAF

空港 :

佐賀空港

佐賀, 日本

緯度: 33-09N, 経度: 130-18E, 海抜: 2m

現時点の気象観測

当レポートは22分前の07:00(UTC)に作成
西の風 6kt、南西から西/北西の間で変化する
気温 32°C
湿度 52%
気圧 1004 hPa
視程10km以上
高度3000ftの雲はほとんどない
高度7000ftの千切れ雲あり

METAR: RJFS 200700Z 26006KT 230V300 9999 FEW030 BKN070 32/21 Q1004

時間: 16:22 (07:22 UTC)

予報

当レポートは2時間14分前の05:08(UTC)に作成
予報は20日の 06時(UTC)から 21日の 12時(UTC)まで有効
西/南西の風 6kt
視程10km以上
高度3000ftの雲はほとんどない
20日の 08時(UTC)から 20日の 10時(UTC)まで徐々に
北/北東の風 5kt
21日の 00時(UTC)から 21日の 03時(UTC)まで徐々に
西の風 7kt
21日の 06時(UTC)から 21日の 09時(UTC)まで徐々に
東/南東の風 8kt

TAF: RJFS 200508Z 2006/2112 24006KT 9999 FEW030 BECMG 2008/2010 03005KT BECMG 2100/2103 26007KT BECMG 2106/2109 11008KT

4,000以上の空港の気象観測と天気予報(METAR報とTAF報)

利用可能な観測所は地図上に黄色い丸と赤い丸で示す。

丸の上にカーソルを重ねると観測所名を参照できる。

次にクリックすると気象観測と天気予報を参照できる。

マップの切り替え:黒色「×」印の緑ボタンをクリックして拡大、「-」印の緑ボタンをクリックして縮小、緑色の三角印をクリックして隣りの地図に切り替え


METAR-TAF: